Time;durP1;ratioP1;P1;durP2;ratioP2;P2;SDS_P1;SDS_P2;PMS_P1;PMS_P2;Temp;Humidity;BMP_temperature;BMP_pressure;BME280_temperature;BME280_humidity;BME280_pressure;Samples;Min_cycle;Max_cycle;Signal;HPM_P1;HPM_P2
2021/03/02 00:05:45;;;;;;;1999.90;999.90;;;;;;;1.99;71.61;103071.31;15765948;28;20052;-64
2021/03/02 00:13:18;;;;;;;1999.90;999.90;;;;;;;2.01;71.75;103064.50;15759751;28;20055;-63
2021/03/02 00:20:55;;;;;;;1999.90;999.90;;;;;;;2.27;70.50;103062.66;15761946;28;20044;-61
2021/03/02 00:28:27;;;;;;;1999.90;999.90;;;;;;;2.22;70.68;103059.75;15761395;28;20051;-64
2021/03/02 00:35:59;;;;;;;1999.90;999.90;;;;;;;2.18;70.68;103063.97;15766394;28;20047;-64
2021/03/02 00:43:30;;;;;;;1999.90;999.90;;;;;;;1.97;71.36;103066.00;15787445;28;20086;-63
2021/03/02 00:51:03;;;;;;;1999.90;999.90;;;;;;;1.99;70.61;103069.41;15775004;28;20054;-63
2021/03/02 00:58:35;;;;;;;1999.90;999.90;;;;;;;1.81;71.69;103076.66;15752617;28;20127;-62
2021/03/02 01:06:08;;;;;;;1999.90;999.90;;;;;;;1.92;71.58;103067.72;15750733;28;20384;-64
2021/03/02 01:13:39;;;;;;;1999.90;999.90;;;;;;;1.90;70.93;103062.44;15767484;28;20513;-64
2021/03/02 01:21:14;;;;;;;1999.90;999.90;;;;;;;1.83;71.53;103058.84;15788199;28;20090;-63
2021/03/02 01:28:45;;;;;;;1999.90;999.90;;;;;;;1.89;72.05;103048.88;15744313;28;20055;-63
2021/03/02 01:36:18;;;;;;;1999.90;999.90;;;;;;;1.94;72.32;103044.41;15746386;28;20091;-63
2021/03/02 01:43:50;;;;;;;1999.90;999.90;;;;;;;1.82;72.58;103042.56;15746202;28;20409;-63
2021/03/02 01:51:22;;;;;;;1999.90;999.90;;;;;;;1.48;73.15;103033.56;15745283;28;20109;-63
2021/03/02 01:58:54;;;;;;;1999.90;999.90;;;;;;;1.13;75.32;103038.50;15745105;28;20085;-63
2021/03/02 02:06:32;;;;;;;1999.90;999.90;;;;;;;1.26;75.49;103038.50;15744462;28;20071;-63
2021/03/02 02:14:11;;;;;;;1999.90;999.90;;;;;;;1.33;75.59;103043.97;15743749;28;20036;-63
2021/03/02 02:22:03;;;;;;;1999.90;999.90;;;;;;;1.48;74.91;103036.31;15744001;28;20040;-64
2021/03/02 02:29:37;;;;;;;1999.90;999.90;;;;;;;1.64;75.46;103038.59;15742523;28;20071;-63
2021/03/02 02:37:09;;;;;;;;;;;;;;;1.84;74.22;103041.25;15741761;28;20505;-63
2021/03/02 02:44:43;;;;;;;1999.90;999.90;;;;;;;1.82;73.91;103032.38;15740048;28;19921;-63
2021/03/02 02:52:15;;;;;;;1999.90;999.90;;;;;;;1.71;74.55;103033.91;15741976;28;20052;-63
2021/03/02 02:59:51;;;;;;;1999.90;999.90;;;;;;;1.71;74.32;103030.31;15741599;28;20393;-63
2021/03/02 03:07:29;;;;;;;1999.90;999.90;;;;;;;1.51;74.00;103035.88;15740205;28;20459;-63
2021/03/02 03:15:06;;;;;;;1999.90;999.90;;;;;;;1.21;75.22;103035.53;15741811;28;20044;-63
2021/03/02 03:22:39;;;;;;;1999.90;999.90;;;;;;;1.32;74.72;103040.38;15750184;28;20047;-63
2021/03/02 03:30:14;;;;;;;1999.90;999.90;;;;;;;1.06;75.27;103045.94;15768742;28;20040;-63
2021/03/02 03:37:46;;;;;;;1999.90;999.90;;;;;;;0.88;75.43;103034.72;15781399;28;20342;-63
2021/03/02 03:45:19;;;;;;;1999.90;999.90;;;;;;;0.97;75.45;103039.78;15787013;28;20126;-63
2021/03/02 03:52:54;;;;;;;1999.90;999.90;;;;;;;0.64;76.67;103038.97;15768624;28;20052;-63
2021/03/02 04:00:27;;;;;;;1999.90;999.90;;;;;;;0.65;76.44;103041.50;15783212;28;20056;-64
2021/03/02 04:07:59;;;;;;;1999.90;999.90;;;;;;;0.57;77.89;103034.28;15777390;28;20036;-64
2021/03/02 04:15:32;;;;;;;1999.90;999.90;;;;;;;0.72;77.49;103039.56;15764858;28;20056;-65
2021/03/02 04:23:03;;;;;;;1999.90;999.90;;;;;;;0.71;77.33;103050.78;15770847;28;20059;-63
2021/03/02 04:30:36;;;;;;;1999.90;999.90;;;;;;;0.55;77.09;103041.91;15756629;28;20040;-63
2021/03/02 04:38:09;;;;;;;1999.90;999.90;;;;;;;0.52;76.72;103031.34;15757953;28;20068;-63
2021/03/02 04:45:41;;;;;;;1999.90;999.90;;;;;;;0.55;76.70;103035.56;15757094;28;20036;-64
2021/03/02 04:53:15;;;;;;;1999.90;999.90;;;;;;;0.67;76.97;103033.88;15747207;28;20045;-63
2021/03/02 05:00:48;;;;;;;1999.90;999.90;;;;;;;0.52;77.08;103038.72;15750398;28;20040;-63
2021/03/02 05:08:19;;;;;;;1999.90;999.90;;;;;;;0.81;76.41;103032.81;15752543;28;20048;-63
2021/03/02 05:15:51;;;;;;;1999.90;999.90;;;;;;;0.84;76.53;103034.31;15750208;28;20048;-63
2021/03/02 05:23:23;;;;;;;1999.90;999.90;;;;;;;0.94;76.13;103042.09;15761828;28;20120;-65
2021/03/02 05:30:55;;;;;;;1999.90;999.90;;;;;;;0.92;76.42;103027.72;15754700;28;20485;-63
2021/03/02 05:38:27;;;;;;;1999.90;999.90;;;;;;;1.18;76.31;103030.47;15794523;28;20127;-62
2021/03/02 05:46:00;;;;;;;1999.90;999.90;;;;;;;1.34;76.23;103032.75;15786836;28;20040;-63
2021/03/02 05:53:33;;;;;;;1999.90;999.90;;;;;;;1.35;75.62;103028.94;15782782;28;20089;-63
2021/03/02 06:01:06;;;;;;;1999.90;999.90;;;;;;;1.27;76.19;103034.69;15769557;28;20424;-64
2021/03/02 06:08:38;;;;;;;1999.90;999.90;;;;;;;1.34;77.17;103026.41;15782132;28;20070;-66
2021/03/02 06:16:10;;;;;;;1999.90;999.90;;;;;;;1.27;76.72;103047.59;15786677;28;20087;-64
2021/03/02 06:23:46;;;;;;;1999.90;999.90;;;;;;;1.53;76.05;103054.94;15756860;28;20538;-62
2021/03/02 06:31:32;;;;;;;1999.90;999.90;;;;;;;1.44;76.74;103057.06;15748033;28;20129;-63
2021/03/02 06:39:23;;;;;;;1999.90;999.90;;;;;;;1.53;76.23;103061.28;15749800;28;20103;-63
2021/03/02 06:46:56;;;;;;;1999.90;999.90;;;;;;;1.39;76.67;103062.38;15745846;28;20172;-64
2021/03/02 06:54:31;;;;;;;;;;;;;;;1.67;76.08;103067.63;15747027;28;20094;-63
2021/03/02 07:02:03;;;;;;;1999.90;999.90;;;;;;;1.18;76.64;103079.13;15744192;28;19943;-63
2021/03/02 07:09:40;;;;;;;1999.90;999.90;;;;;;;1.61;75.39;103072.06;15745805;28;20040;-63
2021/03/02 07:17:14;;;;;;;1999.90;999.90;;;;;;;1.82;75.28;103073.69;15746178;28;20051;-64
2021/03/02 07:24:47;;;;;;;1999.90;999.90;;;;;;;1.78;73.93;103079.84;15768882;28;20068;-65
2021/03/02 07:32:20;;;;;;;1999.90;999.90;;;;;;;1.84;73.82;103071.56;15807657;28;20109;-62
2021/03/02 07:40:03;;;;;;;1999.90;999.90;;;;;;;1.88;73.23;103077.50;15807607;28;20170;-63
2021/03/02 07:47:45;;;;;;;1999.90;999.90;;;;;;;1.79;73.67;103070.53;15809322;28;20473;-63
2021/03/02 07:55:25;;;;;;;1999.90;999.90;;;;;;;2.13;72.16;103063.81;15810348;28;20051;-60
2021/03/02 08:03:24;;;;;;;1999.90;999.90;;;;;;;2.40;72.39;103072.75;15787822;28;20044;-59
2021/03/02 08:10:57;;;;;;;1999.90;999.90;;;;;;;2.70;72.52;103081.25;15779021;28;20520;-61
2021/03/02 08:18:32;;;;;;;1999.90;999.90;;;;;;;2.92;70.04;103084.50;15791494;28;20409;-62
2021/03/02 08:26:25;;;;;;;1999.90;999.90;;;;;;;2.94;71.42;103074.09;15791411;28;20048;-63
2021/03/02 08:34:00;;;;;;;1999.90;999.90;;;;;;;3.09;70.68;103088.38;15794943;28;20511;-62
2021/03/02 08:41:33;;;;;;;1999.90;999.90;;;;;;;3.51;70.11;103086.72;15820098;28;20036;-64
2021/03/02 08:49:10;;;;;;;1999.90;999.90;;;;;;;3.67;69.50;103099.09;15818697;28;20126;-63
2021/03/02 08:56:42;;;;;;;1999.90;999.90;;;;;;;3.42;70.57;103105.47;15820558;28;20032;-63
2021/03/02 09:04:16;;;;;;;1999.90;999.90;;;;;;;3.39;70.87;103103.19;15824801;28;20040;-62
2021/03/02 09:11:49;;;;;;;1999.90;999.90;;;;;;;4.10;69.76;103101.78;15821623;28;20120;-63
2021/03/02 09:19:24;;;;;;;1999.90;999.90;;;;;;;4.13;69.57;103093.00;15819531;28;20040;-63
2021/03/02 09:27:08;;;;;;;1999.90;999.90;;;;;;;4.26;70.48;103103.03;15859220;22;20035;-61
2021/03/02 09:34:43;;;;;;;1999.90;999.90;;;;;;;4.63;69.59;103112.09;15851479;28;20048;-62
2021/03/02 09:42:18;;;;;;;1999.90;999.90;;;;;;;5.12;66.95;103119.22;15850582;28;20047;-61
2021/03/02 09:49:56;;;;;;;1999.90;999.90;;;;;;;5.67;66.67;103118.03;15867774;28;20044;-61
2021/03/02 09:57:28;;;;;;;1999.90;999.90;;;;;;;5.36;67.86;103119.25;15868566;28;20043;-61
2021/03/02 10:05:01;;;;;;;1999.90;999.90;;;;;;;5.16;68.67;103103.81;15849766;28;20120;-61
2021/03/02 10:12:33;;;;;;;1999.90;999.90;;;;;;;4.86;68.96;103100.25;15849746;27;20089;-61
2021/03/02 10:20:36;;;;;;;1999.90;999.90;;;;;;;6.12;66.10;103093.28;15849650;27;20510;-62
2021/03/02 10:28:09;;;;;;;1999.90;999.90;;;;;;;6.19;65.77;103098.69;15816329;28;20549;-62
2021/03/02 10:44:52;;;;;;;1999.90;999.90;;;;;;;6.87;63.94;103104.16;15816666;28;20423;-60
2021/03/02 10:52:26;;;;;;;1999.90;999.90;;;;;;;7.17;64.10;103091.91;15810108;27;20036;-60
2021/03/02 10:59:58;;;;;;;1999.90;999.90;;;;;;;7.75;63.32;103096.13;15855236;28;20048;-61
2021/03/02 11:07:30;;;;;;;1999.90;999.90;;;;;;;7.45;62.69;103096.53;15823455;28;20040;-62
2021/03/02 11:15:02;;;;;;;1999.90;999.90;;;;;;;8.02;60.85;103093.44;15836138;28;20509;-60
2021/03/02 11:22:34;;;;;;;1999.90;999.90;;;;;;;7.37;62.97;103094.16;15828633;28;20126;-61
2021/03/02 11:39:07;;;;;;;1999.90;999.90;;;;;;;14.91;45.10;103093.28;15772764;28;20473;-60
2021/03/02 11:46:39;;;;;;;1999.90;999.90;;;;;;;11.69;51.09;103079.56;15743096;28;20163;-59
2021/03/02 11:54:11;;;;;;;1999.90;999.90;;;;;;;12.74;50.50;103064.53;15791153;28;20043;-60
2021/03/02 12:01:45;;;;;;;1999.90;999.90;;;;;;;15.18;45.69;103053.16;15769957;28;20075;-62
2021/03/02 12:09:17;;;;;;;1999.90;999.90;;;;;;;17.60;40.81;103055.59;15784575;28;20056;-62
2021/03/02 12:16:49;;;;;;;1999.90;999.90;;;;;;;15.62;43.26;103046.19;15770917;28;20060;-59
2021/03/02 12:24:22;;;;;;;1999.90;999.90;;;;;;;18.49;37.61;103045.94;15799549;28;20388;-59
2021/03/02 12:31:53;;;;;;;1999.90;999.90;;;;;;;20.52;34.80;103039.84;15835358;28;20079;-62
2021/03/02 12:39:26;;;;;;;1999.90;999.90;;;;;;;21.87;33.37;103028.56;15841335;28;20131;-60
2021/03/02 12:46:57;;;;;;;1999.90;999.90;;;;;;;24.43;29.32;103031.38;15823436;28;20048;-59
2021/03/02 12:54:30;;;;;;;1999.90;999.90;;;;;;;23.94;30.20;103023.25;15835002;28;20473;-60
2021/03/02 13:02:03;;;;;;;1999.90;999.90;;;;;;;25.93;26.91;103015.13;15843332;28;20268;-62
2021/03/02 13:09:36;;;;;;;1999.90;999.90;;;;;;;26.09;27.22;103018.66;15832578;28;20109;-62
2021/03/02 13:17:07;;;;;;;1999.90;999.90;;;;;;;28.24;24.83;103010.38;15838869;28;20047;-61
2021/03/02 13:24:39;;;;;;;1999.90;999.90;;;;;;;28.53;23.96;103006.47;15837876;28;20411;-62
2021/03/02 13:32:23;;;;;;;1999.90;999.90;;;;;;;28.61;24.16;103004.47;15813926;28;20054;-61
2021/03/02 13:39:58;;;;;;;1999.90;999.90;;;;;;;21.52;32.35;102979.91;15818805;28;20142;-61
2021/03/02 13:47:30;;;;;;;1999.90;999.90;;;;;;;16.21;42.89;102965.53;15846867;28;20039;-61
2021/03/02 13:55:03;;;;;;;1999.90;999.90;;;;;;;14.53;45.99;102955.59;15818388;28;20521;-61
2021/03/02 14:02:44;;;;;;;1999.90;999.90;;;;;;;13.54;47.78;102953.59;15811535;28;20116;-61
2021/03/02 14:10:16;;;;;;;1999.90;999.90;;;;;;;14.26;48.55;102947.00;15837941;28;20109;-62
2021/03/02 14:17:52;;;;;;;1999.90;999.90;;;;;;;13.37;49.51;102927.19;15837859;28;20122;-60
2021/03/02 14:25:25;;;;;;;1999.90;999.90;;;;;;;13.99;47.65;102934.50;15833083;28;20097;-59
2021/03/02 14:32:57;;;;;;;1999.90;999.90;;;;;;;13.95;47.76;102919.38;15828953;28;20044;-58
2021/03/02 14:40:30;;;;;;;1999.90;999.90;;;;;;;14.42;46.34;102918.38;15847107;28;20083;-59
2021/03/02 14:48:07;;;;;;;1999.90;999.90;;;;;;;14.07;45.54;102911.34;15810908;28;20464;-62
2021/03/02 14:55:43;;;;;;;1999.90;999.90;;;;;;;13.69;47.06;102896.47;15828106;28;20050;-62
2021/03/02 15:03:18;;;;;;;1999.90;999.90;;;;;;;13.74;47.28;102887.13;15788788;28;20059;-63
2021/03/02 15:10:53;;;;;;;1999.90;999.90;;;;;;;13.46;47.80;102880.50;15835142;28;20036;-62
2021/03/02 15:18:25;;;;;;;1999.90;999.90;;;;;;;13.51;48.06;102874.81;15824648;28;20051;-63
2021/03/02 15:25:58;;;;;;;1999.90;999.90;;;;;;;13.52;48.31;102880.13;15871469;22;20107;-64
2021/03/02 15:33:30;;;;;;;1999.90;999.90;;;;;;;13.55;48.81;102865.50;15869488;27;20036;-64
2021/03/02 15:41:03;;;;;;;1999.90;999.90;;;;;;;13.19;49.88;102867.09;15849130;28;20052;-64
2021/03/02 15:48:34;;;;;;;1999.90;999.90;;;;;;;13.31;50.46;102858.25;15870937;27;20035;-64
2021/03/02 15:56:07;;;;;;;1999.90;999.90;;;;;;;13.09;50.69;102855.97;15838447;27;20047;-65
2021/03/02 16:03:44;;;;;;;1999.90;999.90;;;;;;;13.17;49.22;102839.34;15897309;27;20514;-64
2021/03/02 16:11:21;;;;;;;1999.90;999.90;;;;;;;13.07;49.23;102831.03;15880782;27;20032;-64
2021/03/02 16:18:57;;;;;;;1999.90;999.90;;;;;;;13.03;49.51;102818.78;15875483;27;20051;-64
2021/03/02 16:26:30;;;;;;;;;;;;;;;12.99;49.70;102832.53;15859195;27;20040;-64
2021/03/02 16:34:02;;;;;;;1999.90;999.90;;;;;;;12.58;51.40;102825.72;15852185;27;20268;-64
2021/03/02 16:41:36;;;;;;;1999.90;999.90;;;;;;;12.21;52.61;102831.97;15856146;27;20130;-64
2021/03/02 16:49:48;;;;;;;1999.90;999.90;;;;;;;11.89;53.65;102827.72;15847464;27;20039;-64
2021/03/02 16:57:33;;;;;;;1999.90;999.90;;;;;;;11.19;54.82;102829.78;15874187;27;20044;-64
2021/03/02 17:05:07;;;;;;;1999.90;999.90;;;;;;;10.64;56.47;102837.22;15866745;27;20558;-64
2021/03/02 17:12:40;;;;;;;1999.90;999.90;;;;;;;10.26;57.58;102833.91;15877001;27;20032;-64
2021/03/02 17:20:14;;;;;;;1999.90;999.90;;;;;;;9.79;58.94;102834.94;15869888;28;20366;-64
2021/03/02 17:27:49;;;;;;;1999.90;999.90;;;;;;;9.51;59.90;102841.88;15841066;28;20372;-64
2021/03/02 17:35:23;;;;;;;1999.90;999.90;;;;;;;9.13;60.51;102831.13;15891373;27;20078;-63
2021/03/02 17:42:56;;;;;;;1999.90;999.90;;;;;;;8.94;61.09;102836.34;15862287;27;20090;-66
2021/03/02 17:50:27;;;;;;;1999.90;999.90;;;;;;;8.66;61.88;102832.88;15898260;27;20483;-66
2021/03/02 17:58:00;;;;;;;1999.90;999.90;;;;;;;8.48;62.87;102836.06;15914832;27;20035;-64
2021/03/02 18:05:32;;;;;;;1999.90;999.90;;;;;;;8.20;63.31;102828.88;15915524;27;20043;-64
2021/03/02 18:13:06;;;;;;;1999.90;999.90;;;;;;;7.98;63.78;102828.13;15903198;27;20118;-63
2021/03/02 18:20:38;;;;;;;1999.90;999.90;;;;;;;7.72;64.67;102819.56;15887316;27;20082;-64
2021/03/02 18:28:10;;;;;;;1999.90;999.90;;;;;;;7.63;64.90;102809.19;15878832;27;20097;-66
2021/03/02 18:35:42;;;;;;;1999.90;999.90;;;;;;;7.45;64.84;102816.78;15875691;27;20047;-64
2021/03/02 18:43:14;;;;;;;1999.90;999.90;;;;;;;7.32;65.16;102808.00;15835711;28;20040;-63
2021/03/02 18:50:46;;;;;;;1999.90;999.90;;;;;;;7.11;65.20;102818.88;15868038;28;20075;-64
2021/03/02 18:58:20;;;;;;;1999.90;999.90;;;;;;;6.88;65.83;102810.81;15850188;28;20048;-64
2021/03/02 19:05:52;;;;;;;1999.90;999.90;;;;;;;6.83;66.54;102799.63;15867093;28;20385;-63
2021/03/02 19:13:24;;;;;;;1999.90;999.90;;;;;;;6.69;67.02;102806.66;15848447;28;20040;-64
2021/03/02 19:20:56;;;;;;;1999.90;999.90;;;;;;;6.46;67.55;102800.25;15866833;28;20051;-64
2021/03/02 19:37:40;;;;;;;1999.90;999.90;;;;;;;6.20;68.07;102806.47;15870700;28;20055;-63
2021/03/02 19:45:12;;;;;;;1999.90;999.90;;;;;;;5.88;69.24;102804.25;15879066;28;20458;-61
2021/03/02 19:52:45;;;;;;;1999.90;999.90;;;;;;;5.81;68.46;102798.03;15874677;28;20047;-61
2021/03/02 20:00:17;;;;;;;1999.90;999.90;;;;;;;5.76;68.10;102786.88;15846136;28;20047;-58
2021/03/02 20:07:50;;;;;;;1999.90;999.90;;;;;;;5.58;68.51;102792.63;15854209;28;20134;-60
2021/03/02 20:15:21;;;;;;;1999.90;999.90;;;;;;;5.46;68.43;102785.22;15883139;28;20480;-63
2021/03/02 20:22:54;;;;;;;1999.90;999.90;;;;;;;5.32;68.30;102783.03;15874706;28;20139;-60
2021/03/02 20:30:27;;;;;;;1999.90;999.90;;;;;;;5.13;68.54;102779.63;15879188;28;20088;-63
2021/03/02 20:38:00;;;;;;;1999.90;999.90;;;;;;;5.14;68.77;102781.28;15881139;28;20519;-63
2021/03/02 20:45:31;;;;;;;1999.90;999.90;;;;;;;5.03;69.22;102779.41;15881926;28;20508;-57
2021/03/02 20:53:04;;;;;;;1999.90;999.90;;;;;;;4.96;69.36;102784.22;15881944;28;20385;-60
2021/03/02 21:00:37;;;;;;;1999.90;999.90;;;;;;;4.81;68.78;102777.31;15897102;28;20035;-62
2021/03/02 21:08:11;;;;;;;1999.90;999.90;;;;;;;4.71;69.22;102776.25;15859685;28;20047;-65
2021/03/02 21:15:43;;;;;;;1999.90;999.90;;;;;;;4.54;69.22;102778.91;15886177;27;20426;-63
2021/03/02 21:23:21;;;;;;;1999.90;999.90;;;;;;;4.51;69.19;102769.19;15855576;28;20051;-65
2021/03/02 21:30:56;;;;;;;1999.90;999.90;;;;;;;4.35;69.60;102759.69;15873686;28;20037;-67
2021/03/02 21:38:31;;;;;;;1999.90;999.90;;;;;;;4.32;69.51;102757.41;15872772;28;20055;-68
2021/03/02 21:46:03;;;;;;;1999.90;999.90;;;;;;;4.18;69.77;102747.72;15873936;27;20070;-66
2021/03/02 21:53:35;;;;;;;1999.90;999.90;;;;;;;4.07;69.95;102747.72;15901177;27;20043;-63
2021/03/02 22:01:08;;;;;;;1999.90;999.90;;;;;;;4.01;69.49;102733.75;15872766;28;20040;-65
2021/03/02 22:08:41;;;;;;;1999.90;999.90;;;;;;;3.91;69.64;102739.03;15884602;27;20096;-65
2021/03/02 22:16:13;;;;;;;1999.90;999.90;;;;;;;3.90;69.23;102733.75;15888052;27;20465;-64
2021/03/02 22:23:46;;;;;;;1999.90;999.90;;;;;;;3.76;69.28;102724.88;15859799;28;20047;-65
2021/03/02 22:31:18;;;;;;;1999.90;999.90;;;;;;;3.73;69.26;102720.66;15901289;27;20038;-65
2021/03/02 22:38:52;;;;;;;1999.90;999.90;;;;;;;3.66;69.23;102719.94;15867451;27;20491;-64
2021/03/02 22:46:24;;;;;;;1999.90;999.90;;;;;;;3.41;70.58;102717.34;15896886;27;20043;-64
2021/03/02 22:53:57;;;;;;;1999.90;999.90;;;;;;;3.35;71.03;102718.31;15892556;27;20041;-65
2021/03/02 23:01:30;;;;;;;1999.90;999.90;;;;;;;3.45;70.10;102712.22;15910996;27;20085;-65
2021/03/02 23:09:02;;;;;;;1999.90;999.90;;;;;;;3.42;70.01;102715.44;15882744;27;20073;-65
2021/03/02 23:16:34;;;;;;;1999.90;999.90;;;;;;;3.21;70.48;102696.66;15887769;27;20043;-65
2021/03/02 23:24:08;;;;;;;1999.90;999.90;;;;;;;3.14;70.58;102683.00;15899247;27;20207;-65
2021/03/02 23:31:39;;;;;;;1999.90;999.90;;;;;;;3.11;70.90;102678.75;15890031;27;20046;-65
2021/03/02 23:39:11;;;;;;;1999.90;999.90;;;;;;;3.16;70.41;102684.44;15897612;27;20476;-65
2021/03/02 23:46:46;;;;;;;1999.90;999.90;;;;;;;3.01;71.12;102688.69;15877763;27;20062;-64
2021/03/02 23:54:18;;;;;;;1999.90;999.90;;;;;;;2.96;70.72;102683.03;15909093;28;20043;-64
